Time;durP1;ratioP1;P1;durP2;ratioP2;P2;SDS_P1;SDS_P2;PMS_P1;PMS_P2;Temp;Humidity;BMP_temperature;BMP_pressure;BME280_temperature;BME280_humidity;BME280_pressure;Samples;Min_cycle;Max_cycle;Signal;HPM_P1;HPM_P2
2021/05/30 00:02:09;;;;;;;8.17;5.23;;;;;;;8.76;73.61;102055.41;5064879;28;20283;-65
2021/05/30 00:04:35;;;;;;;6.70;5.50;;;;;;;8.68;73.22;102058.28;5058472;28;20230;-66
2021/05/30 00:07:03;;;;;;;6.70;5.50;;;;;;;8.62;73.31;102054.03;5059684;28;20715;-65
2021/05/30 00:09:29;;;;;;;6.43;5.60;;;;;;;8.58;73.31;102059.53;5071413;28;20667;-66
2021/05/30 00:11:55;;;;;;;9.00;6.10;;;;;;;8.53;73.66;102061.44;5070727;28;20246;-66
2021/05/30 00:14:22;;;;;;;7.20;5.80;;;;;;;8.50;74.10;102066.84;5063649;28;20209;-65
2021/05/30 00:16:48;;;;;;;6.50;5.80;;;;;;;8.45;73.48;102060.81;5060756;28;20202;-66
2021/05/30 00:19:15;;;;;;;10.20;7.00;;;;;;;8.45;73.30;102058.16;5062470;28;20199;-64
2021/05/30 00:21:41;;;;;;;8.10;6.00;;;;;;;8.41;74.22;102057.41;5053821;28;20323;-65
2021/05/30 00:24:11;;;;;;;9.27;6.57;;;;;;;8.37;73.94;102065.53;5060999;28;20205;-65
2021/05/30 00:26:38;;;;;;;11.23;6.53;;;;;;;8.33;74.24;102055.00;5065934;28;20307;-65
2021/05/30 00:29:04;;;;;;;7.73;6.47;;;;;;;8.29;73.79;102055.97;5061709;28;20205;-65
2021/05/30 00:31:30;;;;;;;8.70;6.50;;;;;;;8.25;74.24;102054.31;5062713;28;20205;-63
2021/05/30 00:33:56;;;;;;;8.77;6.93;;;;;;;8.22;74.64;102056.22;5057951;28;20209;-66
2021/05/30 00:36:23;;;;;;;7.60;6.80;;;;;;;8.21;74.01;102059.78;5062326;28;20793;-65
2021/05/30 00:38:49;;;;;;;5.93;4.93;;;;;;;8.16;74.45;102057.28;5062568;28;20205;-66
2021/05/30 00:41:15;;;;;;;6.87;4.87;;;;;;;8.12;74.25;102060.94;5057657;28;20652;-65
2021/05/30 00:43:45;;;;;;;6.67;5.40;;;;;;;8.09;74.97;102068.97;5056704;28;20210;-66
2021/05/30 00:46:11;;;;;;;5.27;4.27;;;;;;;8.06;74.34;102066.41;5068504;28;20224;-65
2021/05/30 00:48:38;;;;;;;7.20;5.43;;;;;;;8.03;74.85;102061.22;5054020;28;20663;-63
2021/05/30 00:51:04;;;;;;;6.47;5.47;;;;;;;7.99;74.44;102055.13;5055224;28;20657;-65
2021/05/30 00:53:32;;;;;;;5.67;4.73;;;;;;;7.98;74.85;102064.00;5063652;28;20212;-65
2021/05/30 00:55:58;;;;;;;5.37;4.87;;;;;;;7.95;75.38;102056.13;5059406;28;20231;-64
2021/05/30 00:58:25;;;;;;;4.63;4.23;;;;;;;7.90;74.84;102054.53;5053486;28;20678;-64
2021/05/30 01:00:51;;;;;;;5.40;4.13;;;;;;;7.84;75.14;102049.44;5050340;28;20209;-64
2021/05/30 01:03:17;;;;;;;5.90;4.77;;;;;;;7.79;75.42;102056.66;5052110;28;20229;-64
2021/05/30 01:05:43;;;;;;;8.33;6.03;;;;;;;7.76;75.01;102049.63;5066394;22;20239;-80
2021/05/30 01:08:10;;;;;;;8.50;6.30;;;;;;;7.75;75.40;102052.34;5073561;28;20672;-81
2021/05/30 01:10:43;;;;;;;7.97;7.10;;;;;;;7.74;75.72;102050.59;5074099;28;20209;-81
2021/05/30 01:13:11;;;;;;;9.00;6.63;;;;;;;7.74;75.50;102051.47;5074389;28;20346;-81
2021/05/30 01:15:39;;;;;;;7.40;6.57;;;;;;;7.73;76.13;102054.16;5055959;28;20221;-78
2021/05/30 01:18:05;;;;;;;9.00;6.40;;;;;;;7.72;75.88;102045.34;5051366;28;20206;-82
2021/05/30 01:20:32;;;;;;;8.63;7.10;;;;;;;7.69;75.66;102042.81;5055468;28;20231;-82
2021/05/30 01:22:58;;;;;;;7.53;6.20;;;;;;;7.66;75.65;102050.84;5054802;28;20217;-82
2021/05/30 01:25:26;;;;;;;7.57;6.77;;;;;;;7.64;75.25;102048.22;5053208;28;20225;-81
2021/05/30 01:27:52;;;;;;;8.77;6.90;;;;;;;7.61;75.86;102050.97;5053169;28;20670;-81
2021/05/30 01:30:20;;;;;;;8.23;6.40;;;;;;;7.58;75.55;102047.53;5050759;28;20661;-81
2021/05/30 01:32:47;;;;;;;8.30;6.67;;;;;;;7.56;76.25;102049.34;5045500;28;20200;-81
2021/05/30 01:35:14;;;;;;;7.30;6.00;;;;;;;7.51;75.74;102043.31;5054455;28;20221;-81
2021/05/30 01:37:40;;;;;;;8.90;5.97;;;;;;;7.44;75.77;102047.91;5059736;28;20211;-80
2021/05/30 01:40:08;;;;;;;6.90;6.20;;;;;;;7.38;75.94;102045.44;5054873;28;20250;-81
2021/05/30 01:42:35;;;;;;;7.27;6.10;;;;;;;7.32;75.47;102040.31;5051946;28;20285;-80
2021/05/30 01:45:01;;;;;;;6.70;6.07;;;;;;;7.29;75.73;102054.53;5054062;28;20243;-80
2021/05/30 01:47:27;;;;;;;8.30;6.77;;;;;;;7.26;75.79;102044.00;5053401;28;20202;-80
2021/05/30 01:49:53;;;;;;;9.30;6.70;;;;;;;7.26;76.52;102046.66;5042445;28;20213;-81
2021/05/30 01:52:19;;;;;;;7.83;6.90;;;;;;;7.27;76.21;102052.81;5048834;28;20200;-80
2021/05/30 01:54:49;;;;;;;12.13;8.87;;;;;;;7.26;76.28;102045.78;5051866;28;20256;-81
2021/05/30 01:57:15;;;;;;;13.03;9.33;;;;;;;7.25;76.16;102050.22;5048072;28;20634;-80
2021/05/30 01:59:43;;;;;;;10.33;7.80;;;;;;;7.25;77.16;102050.22;5053396;28;20660;-81
2021/05/30 02:02:11;;;;;;;10.23;8.00;;;;;;;7.25;76.67;102059.94;5055292;28;20226;-81
2021/05/30 02:04:40;;;;;;;9.90;7.37;;;;;;;7.23;77.20;102061.75;5049366;28;20245;-82
2021/05/30 02:07:08;;;;;;;9.90;7.10;;;;;;;7.18;77.19;102063.66;5059418;28;20213;-79
2021/05/30 02:09:37;;;;;;;7.93;6.80;;;;;;;7.12;76.79;102067.34;5055732;28;20205;-81
2021/05/30 02:12:04;;;;;;;8.30;6.90;;;;;;;7.08;76.40;102059.53;5055234;28;20198;-83
2021/05/30 02:14:31;;;;;;;9.53;7.23;;;;;;;7.05;76.95;102063.13;5054718;28;20245;-81
2021/05/30 02:16:58;;;;;;;10.37;7.80;;;;;;;7.05;76.97;102062.25;5055888;28;20209;-82
2021/05/30 02:19:24;;;;;;;9.10;7.80;;;;;;;7.04;77.14;102066.66;5055269;28;20208;-82
2021/05/30 02:21:52;;;;;;;9.23;7.20;;;;;;;7.01;77.11;102068.53;5055475;28;20587;-82
2021/05/30 02:24:19;;;;;;;10.03;7.77;;;;;;;7.01;77.38;102060.59;5047326;28;20228;-82
2021/05/30 02:26:46;;;;;;;8.63;7.43;;;;;;;6.97;77.41;102062.47;5055965;28;20201;-82
2021/05/30 02:29:29;;;;;;;9.27;7.43;;;;;;;6.95;77.10;102053.69;5055281;28;20665;-82
2021/05/30 02:31:55;;;;;;;8.83;7.20;;;;;;;6.91;77.35;102060.84;5050163;28;20296;-80
2021/05/30 02:34:22;;;;;;;9.97;7.90;;;;;;;6.90;77.15;102059.09;5053649;28;20221;-81
2021/05/30 02:36:48;;;;;;;10.23;8.03;;;;;;;6.90;77.42;102059.09;5045264;28;20233;-82
2021/05/30 02:39:14;;;;;;;12.30;8.83;;;;;;;6.90;77.25;102066.16;5053413;28;20198;-81
2021/05/30 02:41:40;;;;;;;8.70;7.30;;;;;;;6.89;77.73;102061.78;5054563;28;20286;-81
2021/05/30 02:44:07;;;;;;;8.00;6.83;;;;;;;6.88;77.46;102062.69;5053583;28;20574;-80
2021/05/30 02:46:33;;;;;;;8.27;6.90;;;;;;;6.86;77.83;102069.78;5055155;28;20213;-82
2021/05/30 02:48:59;;;;;;;9.70;7.23;;;;;;;6.82;77.75;102066.34;5057576;28;20231;-82
2021/05/30 02:51:26;;;;;;;9.87;7.90;;;;;;;6.80;77.52;102062.91;5054884;28;20209;-82
2021/05/30 02:53:52;;;;;;;8.83;6.63;;;;;;;6.78;77.52;102063.84;5063669;28;20233;-82
2021/05/30 02:56:18;;;;;;;8.13;6.27;;;;;;;6.75;77.73;102064.78;5050529;28;20202;-83
2021/05/30 02:58:44;;;;;;;6.83;5.90;;;;;;;6.71;77.73;102063.13;5047699;28;20228;-82
2021/05/30 03:01:10;;;;;;;5.80;5.17;;;;;;;6.67;77.36;102066.72;5053660;28;20209;-81
2021/05/30 03:03:36;;;;;;;6.40;4.87;;;;;;;6.63;77.29;102074.81;5050733;28;20586;-82
2021/05/30 03:06:02;;;;;;;5.33;4.83;;;;;;;6.58;77.07;102069.63;5047321;28;20217;-82
2021/05/30 03:08:29;;;;;;;4.97;4.47;;;;;;;6.54;77.17;102065.31;5053262;28;20644;-81
2021/05/30 03:10:55;;;;;;;5.20;4.70;;;;;;;6.49;77.09;102070.69;5045267;28;20205;-82
2021/05/30 03:13:21;;;;;;;7.03;5.30;;;;;;;6.45;77.03;102061.09;5054282;28;20201;-81
2021/05/30 03:15:47;;;;;;;5.47;4.97;;;;;;;6.44;77.35;102071.75;5062702;28;20258;-82
2021/05/30 03:18:13;;;;;;;7.43;5.60;;;;;;;6.41;77.10;102070.03;5055868;28;20201;-81
2021/05/30 03:20:39;;;;;;;5.60;5.10;;;;;;;6.40;77.01;102067.41;5049070;28;20212;-82
2021/05/30 03:23:08;;;;;;;6.67;5.73;;;;;;;6.40;77.44;102076.22;5050759;28;20230;-81
2021/05/30 03:25:35;;;;;;;7.90;6.60;;;;;;;6.40;77.09;102073.56;5056346;28;20222;-81
2021/05/30 03:28:02;;;;;;;8.67;6.67;;;;;;;6.39;77.38;102074.47;5057034;28;20561;-80
2021/05/30 03:30:28;;;;;;;8.13;5.63;;;;;;;6.38;77.61;102071.88;5056570;28;20209;-82
2021/05/30 03:32:54;;;;;;;10.20;7.17;;;;;;;6.36;77.77;102078.97;5050790;28;20648;-82
2021/05/30 03:35:21;;;;;;;7.57;6.67;;;;;;;6.33;77.60;102073.75;5053879;28;20585;-81
2021/05/30 03:37:47;;;;;;;6.40;5.67;;;;;;;6.30;77.59;102076.44;5054159;28;20217;-80
2021/05/30 03:40:26;;;;;;;7.13;6.20;;;;;;;6.26;78.01;102071.25;5050914;28;20213;-80
2021/05/30 03:42:53;;;;;;;5.13;4.70;;;;;;;6.25;78.22;102088.03;5053148;28;20237;-80
2021/05/30 03:45:20;;;;;;;6.13;5.53;;;;;;;6.22;77.98;102077.53;5052804;28;20251;-82
2021/05/30 03:47:46;;;;;;;5.83;5.23;;;;;;;6.24;78.08;102078.34;5056005;28;20209;-79
2021/05/30 03:50:12;;;;;;;6.10;5.50;;;;;;;6.25;78.54;102079.22;5053967;28;20205;-81
2021/05/30 03:52:38;;;;;;;6.33;5.63;;;;;;;6.24;78.44;102073.06;5053075;28;20268;-81
2021/05/30 03:55:05;;;;;;;6.60;5.77;;;;;;;6.27;78.92;102082.69;5056579;28;20233;-82
2021/05/30 03:57:32;;;;;;;6.77;6.07;;;;;;;6.30;78.99;102081.75;5055941;28;20604;-80
2021/05/30 03:59:59;;;;;;;8.30;7.00;;;;;;;6.31;78.87;102080.84;5055556;28;20296;-82
2021/05/30 04:02:25;;;;;;;8.77;7.47;;;;;;;6.31;79.07;102080.84;5063599;28;20224;-82
2021/05/30 04:04:51;;;;;;;11.67;7.80;;;;;;;6.33;79.15;102073.75;5056547;28;20252;-81
2021/05/30 04:07:17;;;;;;;10.63;8.37;;;;;;;6.36;79.30;102081.63;5055873;28;20193;-81
2021/05/30 04:09:43;;;;;;;11.77;9.20;;;;;;;6.40;79.52;102080.66;5056152;28;20701;-81
2021/05/30 04:12:10;;;;;;;12.40;9.67;;;;;;;6.43;79.93;102075.28;5053860;28;20202;-82
2021/05/30 04:14:36;;;;;;;10.67;8.50;;;;;;;6.46;79.62;102078.72;5047452;28;20752;-80
2021/05/30 04:17:04;;;;;;;10.77;8.60;;;;;;;6.49;79.68;102085.72;5056290;28;20213;-82
2021/05/30 04:19:30;;;;;;;12.37;8.53;;;;;;;6.50;80.10;102087.44;5059355;28;20212;-82
2021/05/30 04:21:56;;;;;;;10.07;8.00;;;;;;;6.51;79.94;102078.59;5048710;28;20255;-83
2021/05/30 04:24:22;;;;;;;11.23;8.53;;;;;;;6.49;79.93;102091.88;5049530;28;20228;-82
2021/05/30 04:26:48;;;;;;;10.70;8.73;;;;;;;6.48;80.35;102087.47;5041057;28;20205;-82
2021/05/30 04:29:14;;;;;;;11.77;9.33;;;;;;;6.49;79.85;102093.66;5055314;28;20693;-82
2021/05/30 04:31:40;;;;;;;13.33;9.83;;;;;;;6.48;80.23;102092.78;5050005;28;20228;-82
2021/05/30 04:34:07;;;;;;;15.23;10.20;;;;;;;6.50;80.59;102095.38;5055445;28;20234;-80
2021/05/30 04:36:33;;;;;;;13.73;10.17;;;;;;;6.53;81.24;102090.91;5055772;28;20205;-81
2021/05/30 04:38:59;;;;;;;17.53;11.00;;;;;;;6.57;80.87;102097.00;5048054;28;20254;-81
2021/05/30 04:41:25;;;;;;;11.77;9.43;;;;;;;6.59;81.16;102087.25;5054781;28;20427;-82
2021/05/30 04:43:51;;;;;;;14.67;11.03;;;;;;;6.63;81.04;102096.84;5055407;28;20229;-82
2021/05/30 04:46:17;;;;;;;15.10;11.07;;;;;;;6.68;81.42;102100.25;5051524;28;20254;-82
2021/05/30 04:48:43;;;;;;;17.63;12.77;;;;;;;6.73;81.84;102094.84;5053672;28;20216;-79
2021/05/30 04:51:13;;;;;;;18.77;12.80;;;;;;;6.79;81.59;102092.94;5053052;28;20201;-81
2021/05/30 04:53:41;;;;;;;18.20;13.20;;;;;;;6.86;81.96;102098.94;5050617;28;20199;-79
2021/05/30 04:56:09;;;;;;;17.47;13.67;;;;;;;6.92;82.49;102094.34;5051712;28;20293;-81
2021/05/30 04:58:36;;;;;;;22.10;13.80;;;;;;;7.01;82.37;102097.66;5054328;28;20575;-81
2021/05/30 05:01:02;;;;;;;22.67;15.20;;;;;;;7.08;82.57;102099.25;5051414;28;20641;-81
2021/05/30 05:03:28;;;;;;;29.77;16.27;;;;;;;7.18;83.13;102093.66;5054536;28;20671;-79
2021/05/30 05:05:55;;;;;;;27.80;16.30;;;;;;;7.31;83.32;102097.75;5054345;28;20231;-80
2021/05/30 05:08:22;;;;;;;28.27;16.03;;;;;;;7.44;83.63;102086.81;5049950;28;20208;-80
2021/05/30 05:10:48;;;;;;;23.90;15.33;;;;;;;7.54;83.47;102086.50;5053378;28;20237;-79
2021/05/30 05:13:15;;;;;;;26.60;15.33;;;;;;;7.66;83.73;102086.19;5054528;28;20213;-80
2021/05/30 05:15:44;;;;;;;22.13;14.30;;;;;;;7.77;83.71;102085.00;5054381;28;20219;-82
2021/05/30 05:18:14;;;;;;;24.83;15.27;;;;;;;7.87;83.51;102090.00;5061288;28;20724;-80
2021/05/30 05:20:41;;;;;;;24.23;15.37;;;;;;;7.97;84.06;102087.94;5057242;28;20200;-80
2021/05/30 05:23:07;;;;;;;21.10;14.53;;;;;;;8.06;84.17;102087.63;5056291;28;20221;-81
2021/05/30 05:25:35;;;;;;;20.20;15.07;;;;;;;8.15;84.22;102087.38;5055600;28;20226;-79
2021/05/30 05:28:03;;;;;;;18.73;13.97;;;;;;;8.26;83.60;102087.03;5057934;28;20201;-79
2021/05/30 05:30:29;;;;;;;23.87;15.13;;;;;;;8.35;83.90;102085.00;5051688;28;20201;-81
2021/05/30 05:32:55;;;;;;;16.83;13.27;;;;;;;8.45;84.17;102082.06;5048840;28;20209;-82
2021/05/30 05:35:21;;;;;;;19.37;12.97;;;;;;;8.57;83.56;102084.34;5054634;28;20222;-82
2021/05/30 05:37:47;;;;;;;19.13;12.60;;;;;;;8.68;84.40;102091.03;5046180;28;20206;-82
2021/05/30 05:40:14;;;;;;;18.53;12.87;;;;;;;8.78;83.98;102078.31;5049629;28;20285;-81
2021/05/30 05:42:41;;;;;;;21.60;14.17;;;;;;;8.92;83.46;102086.72;5056583;28;20237;-81
2021/05/30 05:45:08;;;;;;;17.70;12.37;;;;;;;9.04;83.70;102085.41;5052492;28;20229;-81
2021/05/30 05:47:34;;;;;;;19.73;12.47;;;;;;;9.17;83.35;102081.41;5056002;28;20810;-81
2021/05/30 05:50:00;;;;;;;16.67;11.93;;;;;;;9.31;84.00;102083.59;5054902;28;20198;-81
2021/05/30 05:52:26;;;;;;;16.30;12.47;;;;;;;9.45;84.03;102080.44;5051326;28;20204;-82
2021/05/30 05:54:52;;;;;;;14.83;11.93;;;;;;;9.61;83.95;102082.50;5052132;28;20317;-81
2021/05/30 05:57:19;;;;;;;17.67;12.07;;;;;;;9.78;83.34;102094.31;5049626;28;20614;-81
2021/05/30 05:59:46;;;;;;;15.80;12.40;;;;;;;9.94;82.76;102095.47;5054493;28;20206;-79
2021/05/30 06:02:13;;;;;;;15.30;12.37;;;;;;;10.09;83.49;102085.09;5056084;28;20232;-80
2021/05/30 06:04:41;;;;;;;15.40;10.97;;;;;;;10.27;82.71;102085.34;5055216;28;20286;-80
2021/05/30 06:07:07;;;;;;;13.00;10.40;;;;;;;10.45;82.68;102089.94;5054054;28;20216;-79
2021/05/30 06:09:34;;;;;;;16.63;12.30;;;;;;;10.66;82.32;102086.41;5054488;28;20205;-80
2021/05/30 06:12:00;;;;;;;16.00;12.00;;;;;;;10.84;81.46;102090.13;5054554;28;20233;-80
2021/05/30 06:14:26;;;;;;;13.20;11.50;;;;;;;11.01;81.07;102086.75;5047834;28;20297;-82
2021/05/30 06:16:52;;;;;;;13.70;11.77;;;;;;;11.16;80.32;102080.75;5050726;28;20201;-83
2021/05/30 06:19:19;;;;;;;17.67;12.10;;;;;;;11.30;79.72;102085.47;5050568;28;20678;-82
2021/05/30 06:21:45;;;;;;;15.83;12.00;;;;;;;11.44;79.62;102083.09;5044681;28;20674;-80
2021/05/30 06:24:11;;;;;;;14.60;11.40;;;;;;;11.61;78.62;102079.69;5054649;28;20597;-80
2021/05/30 06:26:37;;;;;;;14.17;11.30;;;;;;;11.73;78.11;102076.44;5063978;28;20204;-82
2021/05/30 06:29:04;;;;;;;16.80;12.30;;;;;;;11.83;77.21;102070.63;5055251;28;20577;-82
2021/05/30 06:31:30;;;;;;;15.67;11.73;;;;;;;11.97;77.08;102077.16;5059926;28;20602;-79
2021/05/30 06:33:58;;;;;;;14.20;11.50;;;;;;;12.12;76.77;102077.31;5053895;28;20711;-82
2021/05/30 06:36:24;;;;;;;14.57;11.73;;;;;;;12.25;75.67;102071.38;5058490;28;20204;-81
2021/05/30 06:38:50;;;;;;;13.73;11.27;;;;;;;12.34;75.10;102074.50;5058743;28;20565;-82
2021/05/30 06:41:17;;;;;;;14.63;11.30;;;;;;;12.46;75.15;102076.56;5061163;28;20603;-83
2021/05/30 06:43:43;;;;;;;14.93;11.37;;;;;;;12.60;74.15;102081.22;5048624;28;20238;-80
2021/05/30 06:46:09;;;;;;;15.73;12.57;;;;;;;12.70;73.82;102077.19;5047234;28;20263;-81
2021/05/30 06:48:35;;;;;;;15.00;10.87;;;;;;;12.83;73.50;102072.06;5056412;28;20293;-81
2021/05/30 06:51:13;;;;;;;14.07;11.43;;;;;;;12.99;73.70;102073.03;5061424;28;20209;-80
2021/05/30 06:53:39;;;;;;;15.77;11.00;;;;;;;13.18;73.00;102068.50;5053603;28;20661;-81
2021/05/30 06:56:05;;;;;;;16.03;12.10;;;;;;;13.37;72.73;102067.53;5067203;28;20203;-82
2021/05/30 06:58:32;;;;;;;16.23;12.03;;;;;;;13.57;71.65;102079.88;5060003;28;20292;-80
2021/05/30 07:00:58;;;;;;;15.83;11.30;;;;;;;13.71;70.60;102071.97;5059242;28;20214;-81
2021/05/30 07:03:24;;;;;;;12.60;11.00;;;;;;;13.83;69.72;102069.47;5057609;28;20228;-81
2021/05/30 07:05:51;;;;;;;13.50;11.13;;;;;;;13.94;69.40;102068.91;5058100;28;20411;-82
2021/05/30 07:08:18;;;;;;;13.47;11.63;;;;;;;14.10;69.08;102067.13;5059465;28;20210;-81
2021/05/30 07:10:45;;;;;;;13.33;10.87;;;;;;;14.25;68.05;102068.06;5064997;28;20607;-80
2021/05/30 07:13:11;;;;;;;12.70;10.77;;;;;;;14.41;67.67;102071.66;5057821;28;20229;-80
2021/05/30 07:15:37;;;;;;;13.23;11.43;;;;;;;14.59;67.08;102059.88;5063224;28;20294;-82
2021/05/30 07:18:03;;;;;;;17.80;11.03;;;;;;;14.76;66.45;102066.94;5062232;28;20206;-83
2021/05/30 07:20:29;;;;;;;13.57;10.93;;;;;;;14.89;65.96;102065.25;5063461;28;20596;-83
2021/05/30 07:22:55;;;;;;;15.27;11.07;;;;;;;15.04;65.69;102066.19;5053668;28;20217;-82
2021/05/30 07:25:22;;;;;;;13.10;10.80;;;;;;;15.19;65.20;102062.56;5061304;28;20228;-80
2021/05/30 07:27:50;;;;;;;12.67;10.60;;;;;;;15.36;64.75;102061.56;5059049;28;20212;-80
2021/05/30 07:30:18;;;;;;;12.83;10.50;;;;;;;15.51;64.15;102065.97;5055536;28;20641;-78
2021/05/30 07:32:44;;;;;;;12.83;10.70;;;;;;;15.66;62.88;102066.00;5054746;28;20202;-79
2021/05/30 07:35:10;;;;;;;14.87;10.80;;;;;;;15.73;62.59;102065.56;5054065;28;20308;-80
2021/05/30 07:37:36;;;;;;;12.87;10.50;;;;;;;15.89;62.45;102062.75;5061681;28;20269;-78
2021/05/30 07:40:04;;;;;;;14.43;10.93;;;;;;;16.02;61.60;102063.69;5061886;28;20228;-79
2021/05/30 07:42:31;;;;;;;14.73;10.80;;;;;;;16.17;61.35;102064.53;5061676;28;20234;-80
2021/05/30 07:44:57;;;;;;;13.10;10.80;;;;;;;16.29;60.54;102067.31;5057051;28;20217;-79
2021/05/30 07:47:24;;;;;;;13.33;9.93;;;;;;;16.44;60.63;102059.22;5060169;28;20597;-78
2021/05/30 07:49:50;;;;;;;11.13;9.87;;;;;;;16.58;60.06;102065.41;5059218;28;20293;-81
2021/05/30 07:52:16;;;;;;;12.60;9.43;;;;;;;16.71;59.70;102065.47;5061279;28;20206;-80
2021/05/30 07:54:42;;;;;;;11.43;9.87;;;;;;;16.89;59.41;102063.38;5058086;28;20248;-80
2021/05/30 07:57:09;;;;;;;12.73;9.73;;;;;;;17.03;58.60;102057.91;5052802;28;20200;-81
2021/05/30 07:59:36;;;;;;;11.77;9.50;;;;;;;17.13;57.84;102060.84;5057560;28;20217;-81
2021/05/30 08:02:03;;;;;;;11.83;9.83;;;;;;;17.21;57.52;102059.34;5060146;28;20215;-80
2021/05/30 08:04:29;;;;;;;11.60;10.10;;;;;;;17.24;56.12;102066.34;5067146;28;20219;-81
2021/05/30 08:06:55;;;;;;;10.27;8.77;;;;;;;17.28;56.13;102052.59;5061629;28;20272;-80
2021/05/30 08:09:21;;;;;;;10.60;9.20;;;;;;;17.37;56.27;102055.63;5064336;28;20204;-80
2021/05/30 08:11:47;;;;;;;10.30;9.20;;;;;;;17.50;56.52;102059.16;5055900;28;20204;-79
2021/05/30 08:14:13;;;;;;;11.03;9.87;;;;;;;17.64;56.46;102049.19;5058343;28;20224;-79
2021/05/30 08:16:41;;;;;;;9.77;8.83;;;;;;;17.79;55.82;102052.59;5058312;28;20595;-81
2021/05/30 08:19:07;;;;;;;11.97;9.37;;;;;;;17.93;55.40;102046.22;5058465;28;20204;-80
2021/05/30 08:21:33;;;;;;;10.87;9.50;;;;;;;18.12;55.48;102049.31;5050673;28;20575;-82
2021/05/30 08:23:59;;;;;;;10.83;9.40;;;;;;;18.36;54.92;102041.25;5053122;28;20227;-79
2021/05/30 08:26:25;;;;;;;10.87;8.60;;;;;;;18.52;53.50;102047.22;5053356;28;20649;-82
2021/05/30 08:28:51;;;;;;;11.40;9.17;;;;;;;18.62;52.94;102047.47;5048033;28;20266;-81
2021/05/30 08:31:17;;;;;;;10.23;9.13;;;;;;;18.76;52.64;102041.88;5060899;28;20199;-81
2021/05/30 08:33:48;;;;;;;10.13;8.03;;;;;;;18.91;52.31;102046.09;5050498;28;20708;-80
2021/05/30 08:36:16;;;;;;;11.23;9.07;;;;;;;19.07;51.73;102043.94;5058591;28;20632;-83
2021/05/30 08:38:43;;;;;;;10.90;9.77;;;;;;;19.20;51.29;102042.97;5052596;28;20687;-80
2021/05/30 08:41:09;;;;;;;11.17;9.10;;;;;;;19.27;50.85;102041.53;5062392;28;20260;-79
2021/05/30 08:43:36;;;;;;;10.00;8.70;;;;;;;19.39;51.19;102043.28;5058767;28;20308;-82
2021/05/30 08:46:02;;;;;;;10.97;8.37;;;;;;;19.49;50.05;102046.13;5053955;28;20300;-82
2021/05/30 08:48:30;;;;;;;9.43;7.87;;;;;;;19.57;49.77;102046.41;5054983;28;20223;-81
2021/05/30 08:51:03;;;;;;;11.60;9.23;;;;;;;19.68;50.01;102043.72;5051795;28;20727;-79
2021/05/30 08:53:31;;;;;;;9.30;7.93;;;;;;;19.80;49.66;102047.28;5059886;28;20196;-80
2021/05/30 08:55:57;;;;;;;8.67;7.83;;;;;;;19.88;49.17;102044.84;5058091;28;20274;-82
2021/05/30 08:58:33;;;;;;;9.77;8.77;;;;;;;19.94;48.78;102039.78;5053359;28;20199;-81
2021/05/30 09:01:18;;;;;;;11.23;8.10;;;;;;;20.03;49.29;102040.88;5064306;28;20260;-81
2021/05/30 09:03:53;;;;;;;9.27;7.70;;;;;;;20.14;48.39;102040.00;5068976;28;20767;-79
2021/05/30 09:06:23;;;;;;;8.50;7.70;;;;;;;20.19;48.24;102037.78;5058824;28;20357;-81
2021/05/30 09:08:53;;;;;;;10.23;7.73;;;;;;;20.24;48.18;102038.28;5064658;28;20199;-78
2021/05/30 09:11:42;;;;;;;8.77;7.67;;;;;;;20.17;46.45;102034.34;5057530;28;20290;-81
2021/05/30 09:14:12;;;;;;;9.07;8.13;;;;;;;20.09;46.74;102025.00;5058080;28;20303;-81
2021/05/30 09:16:57;;;;;;;9.83;7.10;;;;;;;20.08;48.19;102031.41;5057675;28;20240;-82
2021/05/30 09:19:31;;;;;;;10.57;6.90;;;;;;;20.14;48.08;102032.75;5052415;28;20209;-79
2021/05/30 09:22:32;;;;;;;7.23;6.50;;;;;;;20.18;47.37;102036.06;5043542;28;20286;-80
2021/05/30 09:25:07;;;;;;;8.40;7.33;;;;;;;20.10;46.41;102034.84;5046706;28;20255;-80
2021/05/30 09:27:35;;;;;;;7.73;6.23;;;;;;;20.14;47.48;102040.84;5057675;28;20205;-81
2021/05/30 09:30:13;;;;;;;7.87;7.07;;;;;;;20.27;47.54;102029.88;5050183;28;20205;-79
2021/05/30 09:32:56;;;;;;;8.63;6.63;;;;;;;20.33;46.13;102035.66;5046947;28;20195;-79
2021/05/30 09:35:23;;;;;;;8.63;6.60;;;;;;;20.38;46.48;102027.22;5059032;28;20705;-79
2021/05/30 09:38:01;;;;;;;8.07;6.73;;;;;;;20.39;46.28;102029.78;5058568;28;20216;-79
2021/05/30 09:40:38;;;;;;;9.17;6.30;;;;;;;20.43;45.79;102030.38;5058571;28;20283;-79
2021/05/30 09:43:05;;;;;;;8.03;6.63;;;;;;;20.50;45.48;102030.72;5061951;28;20579;-79
2021/05/30 09:45:31;;;;;;;9.10;7.17;;;;;;;20.56;45.17;102027.53;5059977;28;20276;-79
2021/05/30 09:47:57;;;;;;;9.67;7.23;;;;;;;20.60;45.46;102029.81;5060233;28;20209;-79
2021/05/30 09:50:23;;;;;;;8.03;7.23;;;;;;;20.68;45.59;102034.59;5054699;28;20209;-78
2021/05/30 09:52:51;;;;;;;7.60;6.80;;;;;;;20.86;46.05;102032.19;5058562;28;20208;-79
2021/05/30 09:55:20;;;;;;;6.85;5.80;;;;;;;20.99;45.26;102028.28;5061558;28;20233;-78
2021/05/30 09:58:06;;;;;;;10.68;6.82;;;;;;;21.10;44.66;102027.41;5065980;28;20283;-78
2021/05/30 10:00:32;;;;;;;8.87;6.37;;;;;;;21.22;44.42;102014.66;5071938;28;20228;-79
2021/05/30 10:02:58;;;;;;;8.20;6.53;;;;;;;21.31;44.06;102014.72;5049525;28;20235;-79
2021/05/30 10:05:25;;;;;;;8.25;7.20;;;;;;;21.41;43.88;102020.19;5056934;28;20249;-79
2021/05/30 10:07:52;;;;;;;10.43;6.82;;;;;;;21.46;43.73;102017.94;5078647;28;20631;-78
2021/05/30 10:10:19;;;;;;;8.07;6.85;;;;;;;21.56;43.71;102012.56;5066799;28;20550;-79
2021/05/30 10:12:45;;;;;;;6.95;5.85;;;;;;;21.70;43.36;102009.47;5057849;28;20212;-80
2021/05/30 10:15:12;;;;;;;7.00;6.22;;;;;;;21.74;42.63;102003.66;5056874;28;20251;-79
2021/05/30 10:17:41;;;;;;;8.98;6.05;;;;;;;21.82;42.45;102001.13;5056974;28;20335;-79
2021/05/30 10:20:09;;;;;;;7.55;5.90;;;;;;;21.88;41.82;102010.56;5067830;28;20204;-79
2021/05/30 10:22:36;;;;;;;7.10;5.63;;;;;;;21.94;41.85;102003.72;5077390;28;20224;-81
2021/05/30 10:25:03;;;;;;;6.97;6.38;;;;;;;21.95;41.31;102006.31;5074879;28;20231;-78
2021/05/30 10:27:30;;;;;;;6.35;5.45;;;;;;;21.99;41.37;102002.31;5057565;28;20205;-79
2021/05/30 10:30:16;;;;;;;8.32;6.05;;;;;;;22.10;41.44;101994.09;5057647;28;20597;-80
2021/05/30 10:32:44;;;;;;;6.25;5.63;;;;;;;22.22;40.76;102011.09;5058003;28;20197;-79
2021/05/30 10:35:18;;;;;;;6.65;6.00;;;;;;;22.24;40.08;102005.53;5057382;28;20249;-79
2021/05/30 10:37:47;;;;;;;6.55;5.32;;;;;;;22.21;39.80;102001.28;5070367;28;20228;-79
2021/05/30 10:40:30;;;;;;;6.65;5.60;;;;;;;22.23;40.16;101998.41;5077885;28;20291;-79
2021/05/30 10:43:20;;;;;;;6.07;5.57;;;;;;;22.30;40.71;102000.44;5075145;28;20224;-79
2021/05/30 10:46:06;;;;;;;6.57;5.68;;;;;;;22.39;39.78;102005.00;5077055;28;20264;-79
2021/05/30 10:48:33;;;;;;;7.38;5.80;;;;;;;22.42;39.09;101999.28;5076922;28;20600;-80
2021/05/30 10:51:07;;;;;;;6.13;5.43;;;;;;;22.44;38.80;101993.72;5076248;28;20232;-78
2021/05/30 10:53:39;;;;;;;6.20;5.60;;;;;;;22.48;39.33;101992.44;5075889;28;20568;-78
2021/05/30 10:56:29;;;;;;;5.95;5.30;;;;;;;22.56;39.40;101991.75;5076653;28;20195;-78
2021/05/30 10:59:32;;;;;;;6.80;6.13;;;;;;;22.62;38.60;101988.44;5076404;28;20664;-79
2021/05/30 11:02:02;;;;;;;7.68;6.95;;;;;;;22.68;38.32;101985.16;5035744;28;20284;-80
2021/05/30 11:04:33;;;;;;;7.18;6.45;;;;;;;22.71;37.97;101985.75;5036154;28;20785;-79
2021/05/30 11:07:00;;;;;;;6.57;5.97;;;;;;;22.81;38.47;101980.31;5037000;28;20249;-79
2021/05/30 11:10:01;;;;;;;8.02;6.50;;;;;;;23.02;37.88;101980.16;5038070;28;20276;-79
2021/05/30 11:12:29;;;;;;;6.80;6.13;;;;;;;23.16;36.93;101979.69;5036954;28;20184;-79
2021/05/30 11:15:27;;;;;;;7.03;5.90;;;;;;;23.27;36.82;101967.81;5036332;28;20226;-79
2021/05/30 11:17:55;;;;;;;6.68;5.93;;;;;;;23.33;36.97;101970.75;5040244;28;20213;-79
2021/05/30 11:20:23;;;;;;;6.28;5.63;;;;;;;23.34;36.81;101971.63;5056388;28;20215;-79
2021/05/30 11:22:51;;;;;;;7.90;5.78;;;;;;;23.40;37.11;101973.75;5056641;28;20255;-79
2021/05/30 11:25:19;;;;;;;7.60;6.90;;;;;;;23.39;36.43;101970.19;5056580;28;20227;-79
2021/05/30 11:27:53;;;;;;;7.13;5.93;;;;;;;23.33;36.61;101970.75;5056259;28;20288;-78
2021/05/30 11:30:55;;;;;;;11.82;10.63;;;;;;;23.28;36.78;101969.53;5056713;28;20188;-79